createdAt,value
2018-03-23T00:00:41.140Z,19.00
2018-03-23T00:03:07.529Z,19.67
2018-03-23T00:05:33.871Z,16.10
2018-03-23T00:08:00.188Z,22.83
2018-03-23T00:10:27.222Z,23.47
2018-03-23T00:12:53.472Z,19.50
2018-03-23T00:15:19.733Z,19.20
2018-03-23T00:17:46.158Z,20.60
2018-03-23T00:20:12.506Z,20.10
2018-03-23T00:22:38.867Z,18.00
2018-03-23T00:25:05.102Z,22.17
2018-03-23T00:27:31.439Z,19.70
2018-03-23T00:29:57.662Z,18.77
2018-03-23T00:32:24.041Z,21.40
2018-03-23T00:34:50.366Z,19.90
2018-03-23T00:37:16.593Z,20.63
2018-03-23T00:39:42.892Z,21.70
2018-03-23T00:42:09.895Z,19.17
2018-03-23T00:44:36.167Z,20.40
2018-03-23T00:47:02.383Z,21.53
2018-03-23T00:49:28.656Z,21.97
2018-03-23T00:51:54.972Z,17.77
2018-03-23T00:54:21.266Z,19.20
2018-03-23T00:56:48.297Z,19.50
2018-03-23T00:59:14.653Z,19.27
2018-03-23T01:01:40.883Z,23.30
2018-03-23T01:04:07.255Z,23.90
2018-03-23T01:06:34.350Z,18.80
2018-03-23T01:09:01.340Z,19.73
2018-03-23T01:11:29.309Z,21.27
2018-03-23T01:13:55.580Z,23.67
2018-03-23T01:16:21.927Z,18.90
2018-03-23T01:18:48.161Z,22.00
2018-03-23T01:21:14.524Z,21.33
2018-03-23T01:23:40.854Z,24.77
2018-03-23T01:26:07.106Z,21.10
2018-03-23T01:28:34.177Z,19.93
2018-03-23T01:31:00.495Z,24.60
2018-03-23T01:33:26.755Z,21.03
2018-03-23T01:35:53.071Z,19.00
2018-03-23T01:38:19.335Z,17.47
2018-03-23T01:40:45.671Z,18.57
2018-03-23T01:43:11.909Z,19.20
2018-03-23T01:45:38.151Z,18.97
2018-03-23T01:48:05.236Z,16.37
2018-03-23T01:50:31.536Z,22.93
2018-03-23T01:52:57.807Z,20.13
2018-03-23T01:55:24.058Z,17.87
2018-03-23T01:57:50.300Z,13.40
2018-03-23T02:00:16.631Z,15.37
2018-03-23T02:02:42.909Z,12.60
2018-03-23T02:05:09.929Z,10.60
2018-03-23T02:07:36.169Z,12.57
2018-03-23T02:10:03.241Z,12.07
2018-03-23T02:12:29.492Z,10.83
2018-03-23T02:14:55.822Z,15.60
2018-03-23T02:17:22.099Z,12.13
2018-03-23T02:19:48.339Z,10.50
2018-03-23T02:22:14.656Z,9.13
2018-03-23T02:24:40.885Z,7.83
2018-03-23T02:27:07.155Z,10.20
2018-03-23T02:29:33.504Z,9.70
2018-03-23T02:31:59.797Z,8.20
2018-03-23T02:34:26.076Z,7.80
2018-03-23T02:36:52.332Z,8.37
2018-03-23T02:39:18.654Z,9.47
2018-03-23T02:41:44.917Z,8.00
2018-03-23T02:44:11.279Z,8.13
2018-03-23T02:46:38.329Z,8.97
2018-03-23T02:49:04.651Z,7.90
2018-03-23T02:51:30.883Z,7.17
2018-03-23T02:53:57.192Z,8.03
2018-03-23T02:56:24.202Z,7.00
2018-03-23T02:58:50.472Z,7.77
2018-03-23T03:01:16.793Z,8.20
2018-03-23T03:03:43.150Z,6.07
2018-03-23T03:06:09.464Z,7.27
2018-03-23T03:52:16.345Z,5.40
2018-03-23T03:54:43.372Z,8.40
2018-03-23T03:57:09.608Z,8.83
2018-03-23T03:59:35.867Z,9.50
2018-03-23T04:02:02.226Z,9.53
2018-03-23T04:04:29.279Z,17.10
2018-03-23T04:06:55.489Z,15.57
2018-03-23T04:09:21.855Z,17.03
2018-03-23T04:11:48.103Z,16.90
2018-03-23T04:14:14.444Z,16.77
2018-03-23T04:16:40.662Z,17.50
2018-03-23T04:19:06.927Z,17.70
2018-03-23T04:21:33.176Z,19.60
2018-03-23T04:23:59.419Z,19.80
2018-03-23T04:26:25.744Z,18.00
2018-03-23T04:28:52.070Z,18.13
2018-03-23T04:31:18.331Z,17.47
2018-03-23T04:33:44.598Z,17.10
2018-03-23T04:36:10.941Z,13.97
2018-03-23T04:38:37.185Z,17.20
2018-03-23T04:41:03.528Z,15.60
2018-03-23T04:43:29.875Z,18.40
2018-03-23T04:45:56.255Z,16.10
2018-03-23T04:48:23.300Z,16.47
2018-03-23T04:50:50.292Z,16.93
2018-03-23T04:53:16.580Z,19.47
2018-03-23T04:55:43.840Z,19.97
2018-03-23T04:58:10.100Z,22.03
2018-03-23T05:00:36.324Z,32.10
2018-03-23T05:03:02.587Z,18.20
2018-03-23T05:05:28.886Z,16.63
2018-03-23T05:07:55.183Z,15.00
2018-03-23T05:10:22.148Z,16.93
2018-03-23T05:12:49.214Z,18.53
2018-03-23T05:15:16.427Z,17.20
2018-03-23T05:17:42.655Z,15.37
2018-03-23T05:20:08.906Z,19.80
2018-03-23T05:22:35.152Z,18.00
2018-03-23T05:25:01.420Z,19.00
2018-03-23T05:27:27.756Z,18.97
2018-03-23T05:29:54.273Z,17.77
2018-03-23T05:32:20.524Z,18.30
2018-03-23T05:34:46.804Z,16.93
2018-03-23T05:37:13.153Z,19.43
2018-03-23T05:39:39.516Z,19.33
2018-03-23T05:42:06.472Z,19.17
2018-03-23T05:44:33.522Z,19.17
2018-03-23T05:46:59.833Z,25.03
2018-03-23T05:49:26.198Z,96.87
2018-03-23T05:51:52.480Z,74.03
2018-03-23T05:54:19.540Z,27.00
2018-03-23T05:56:45.891Z,21.03
2018-03-23T05:59:12.197Z,18.37
2018-03-23T06:01:38.545Z,15.37
2018-03-23T06:04:05.812Z,15.63
2018-03-23T06:06:32.072Z,16.40
2018-03-23T06:08:58.386Z,15.50
2018-03-23T06:11:24.617Z,12.27
2018-03-23T06:13:50.900Z,16.10
2018-03-23T06:16:17.951Z,12.00
2018-03-23T06:18:44.292Z,14.93
2018-03-23T06:21:10.657Z,14.40
2018-03-23T06:23:36.983Z,11.17
2018-03-23T06:26:03.321Z,12.47
2018-03-23T06:28:29.589Z,12.37
2018-03-23T06:30:56.614Z,9.93
2018-03-23T06:33:22.994Z,9.83
2018-03-23T06:35:50.073Z,11.77
2018-03-23T06:38:16.600Z,8.47
2018-03-23T06:40:43.616Z,9.73
2018-03-23T06:43:09.860Z,8.53
2018-03-23T06:45:36.156Z,9.60
2018-03-23T06:48:03.175Z,10.97
2018-03-23T06:50:29.437Z,8.53
2018-03-23T06:52:55.780Z,8.53
2018-03-23T06:55:22.625Z,8.83
2018-03-23T06:57:49.057Z,6.90
2018-03-23T07:00:15.363Z,7.40
2018-03-23T07:02:41.650Z,7.90
2018-03-23T07:05:07.924Z,7.73
2018-03-23T07:07:34.964Z,10.53
2018-03-23T07:10:01.341Z,7.50
2018-03-23T07:12:28.312Z,8.70
2018-03-23T07:14:54.761Z,9.13
2018-03-23T07:17:20.998Z,9.60
2018-03-23T07:19:48.019Z,9.87
2018-03-23T07:22:15.004Z,9.73
2018-03-23T07:24:42.044Z,9.20
2018-03-23T07:27:08.265Z,9.40
2018-03-23T07:29:34.509Z,10.00
2018-03-23T07:32:00.756Z,8.57
2018-03-23T07:34:27.023Z,8.03
2018-03-23T07:36:53.276Z,11.13
2018-03-23T07:39:19.522Z,10.00
2018-03-23T07:41:46.510Z,10.23
2018-03-23T07:44:12.782Z,9.67
2018-03-23T07:46:39.035Z,9.23
2018-03-23T07:49:05.307Z,9.60
2018-03-23T07:51:32.340Z,11.83
2018-03-23T07:53:58.594Z,11.93
2018-03-23T07:56:24.840Z,7.90
2018-03-23T07:58:51.098Z,10.97
2018-03-23T08:01:17.314Z,9.73
2018-03-23T08:03:44.293Z,9.30
2018-03-23T08:06:10.519Z,9.30
2018-03-23T08:08:36.776Z,8.03
2018-03-23T08:11:03.008Z,10.50
2018-03-23T08:13:29.270Z,8.27
2018-03-23T08:15:56.220Z,9.53
2018-03-23T08:18:22.464Z,11.07
2018-03-23T08:20:48.677Z,11.00
2018-03-23T08:23:14.924Z,10.10
2018-03-23T08:25:41.162Z,12.70
2018-03-23T08:28:07.396Z,9.43
2018-03-23T08:30:33.634Z,9.40
2018-03-23T08:32:59.890Z,10.90
2018-03-23T08:35:26.214Z,13.60
2018-03-23T08:37:52.464Z,10.60
2018-03-23T08:40:18.678Z,11.13
2018-03-23T08:42:44.899Z,9.70
2018-03-23T08:45:11.908Z,12.33
2018-03-23T08:47:38.131Z,9.77
2018-03-23T08:50:04.385Z,10.70
2018-03-23T08:52:30.620Z,10.43
2018-03-23T08:54:56.840Z,10.67
2018-03-23T08:57:23.805Z,11.93
2018-03-23T08:59:50.792Z,12.33
2018-03-23T09:02:17.022Z,11.97
2018-03-23T09:04:43.243Z,11.97
2018-03-23T09:07:10.216Z,11.17
2018-03-23T09:09:36.473Z,10.70
2018-03-23T09:12:02.710Z,32.03
2018-03-23T09:14:28.942Z,10.73
2018-03-23T09:16:55.176Z,11.23
2018-03-23T09:19:21.421Z,10.50
2018-03-23T09:21:48.454Z,16.90
2018-03-23T09:24:14.670Z,15.87
2018-03-23T09:26:40.887Z,10.73
2018-03-23T09:29:07.379Z,10.07
2018-03-23T09:31:33.612Z,14.10
2018-03-23T09:33:59.865Z,11.00
2018-03-23T09:36:26.087Z,14.20
2018-03-23T09:38:52.356Z,14.20
2018-03-23T09:41:18.570Z,10.87
2018-03-23T09:43:44.820Z,8.93
2018-03-23T09:46:11.032Z,13.90
2018-03-23T09:48:37.288Z,12.43
2018-03-23T09:51:03.521Z,14.73
2018-03-23T09:53:29.778Z,10.23
2018-03-23T09:55:56.000Z,11.90
2018-03-23T09:58:22.250Z,7.00
2018-03-23T10:00:48.506Z,9.33
2018-03-23T10:03:14.756Z,10.43
2018-03-23T10:05:40.975Z,11.17
2018-03-23T10:08:07.220Z,10.10
2018-03-23T10:10:33.449Z,8.77
2018-03-23T10:12:59.691Z,9.07
2018-03-23T10:15:25.957Z,11.03
2018-03-23T10:17:52.210Z,10.37
2018-03-23T10:20:18.422Z,8.00
2018-03-23T10:22:44.654Z,10.13
2018-03-23T10:25:10.918Z,8.13
2018-03-23T10:27:37.140Z,9.20
2018-03-23T10:30:03.381Z,7.43
2018-03-23T10:32:29.643Z,11.20
2018-03-23T10:34:55.884Z,10.33
2018-03-23T10:37:22.143Z,10.20
2018-03-23T10:39:48.367Z,9.07
2018-03-23T10:42:14.602Z,7.93
2018-03-23T10:44:40.810Z,9.80
2018-03-23T10:47:07.106Z,5.47
2018-03-23T10:49:33.359Z,5.97
2018-03-23T10:51:59.614Z,7.20
2018-03-23T10:54:25.900Z,7.33
2018-03-23T10:56:52.883Z,6.53
2018-03-23T10:59:19.135Z,6.93
2018-03-23T11:01:51.604Z,5.77
2018-03-23T11:04:17.860Z,6.87
2018-03-23T11:06:44.073Z,10.23
2018-03-23T11:09:11.086Z,13.90
2018-03-23T11:11:37.311Z,7.50
2018-03-23T11:14:03.560Z,6.00
2018-03-23T11:16:29.772Z,7.60
2018-03-23T11:18:56.020Z,8.97
2018-03-23T11:21:22.239Z,8.83
2018-03-23T11:23:49.230Z,12.60
2018-03-23T11:26:15.434Z,9.07
2018-03-23T11:28:42.403Z,7.83
2018-03-23T11:31:09.504Z,7.87
2018-03-23T11:33:35.764Z,9.67
2018-03-23T11:36:02.002Z,7.87
2018-03-23T11:38:28.270Z,6.63
2018-03-23T11:40:54.488Z,5.93
2018-03-23T11:43:20.728Z,6.77
2018-03-23T11:45:46.995Z,5.97
2018-03-23T11:48:13.248Z,7.43
2018-03-23T11:50:40.299Z,7.97
2018-03-23T11:53:06.486Z,8.60
2018-03-23T11:55:32.703Z,8.40
2018-03-23T11:57:59.718Z,9.47
2018-03-23T12:00:25.966Z,10.40
2018-03-23T12:02:52.222Z,9.23
2018-03-23T12:05:18.446Z,9.40
2018-03-23T12:07:44.686Z,9.93
2018-03-23T12:10:10.923Z,9.10
2018-03-23T12:12:37.159Z,14.70
2018-03-23T12:15:03.512Z,11.27
2018-03-23T12:17:30.460Z,9.50
2018-03-23T12:19:56.670Z,11.00
2018-03-23T12:22:23.664Z,9.33
2018-03-23T12:24:49.908Z,18.17
2018-03-23T12:27:16.204Z,77.23
2018-03-23T12:29:42.402Z,12.63
2018-03-23T12:32:08.654Z,13.73
2018-03-23T12:34:34.874Z,9.70
2018-03-23T12:37:01.094Z,8.70
2018-03-23T12:39:27.356Z,11.47
2018-03-23T12:41:53.576Z,12.23
2018-03-23T12:44:20.563Z,10.90
2018-03-23T12:46:46.796Z,10.70
2018-03-23T12:49:13.024Z,15.00
2018-03-23T12:51:39.998Z,12.27
2018-03-23T12:54:06.259Z,10.97
2018-03-23T12:56:32.475Z,11.30
2018-03-23T12:58:58.766Z,13.97
2018-03-23T13:01:24.996Z,14.10
2018-03-23T13:03:51.236Z,12.77
2018-03-23T13:06:17.493Z,18.73
2018-03-23T13:08:43.743Z,10.23
2018-03-23T13:11:09.955Z,12.17
2018-03-23T13:13:36.198Z,12.80
2018-03-23T13:16:02.474Z,13.27
2018-03-23T13:18:28.755Z,14.37
2018-03-23T13:20:55.037Z,10.70
2018-03-23T13:23:21.349Z,10.10
2018-03-23T13:25:47.567Z,11.17
2018-03-23T13:28:14.545Z,10.83
2018-03-23T13:30:40.772Z,13.13
2018-03-23T13:33:07.780Z,9.27
2018-03-23T13:35:34.012Z,12.10
2018-03-23T13:38:00.282Z,13.13
2018-03-23T13:40:26.522Z,13.40
2018-03-23T13:42:52.781Z,14.80
2018-03-23T13:45:19.020Z,14.73
2018-03-23T13:47:45.270Z,14.03
2018-03-23T13:50:11.592Z,12.90
2018-03-23T13:52:37.832Z,15.30
2018-03-23T13:55:04.120Z,13.30
2018-03-23T13:57:31.149Z,15.30
2018-03-23T13:59:59.428Z,16.37
2018-03-23T14:02:25.733Z,18.67
2018-03-23T14:04:52.688Z,14.77
2018-03-23T14:07:19.665Z,13.83
2018-03-23T14:09:45.895Z,15.03
2018-03-23T14:12:12.144Z,13.77
2018-03-23T14:14:38.362Z,16.13
2018-03-23T14:17:05.358Z,13.87
2018-03-23T14:19:31.578Z,15.20
2018-03-23T14:21:57.836Z,12.90
2018-03-23T14:24:24.048Z,13.70
2018-03-23T14:26:51.052Z,15.90
2018-03-23T14:29:17.262Z,12.13
2018-03-23T14:31:44.258Z,12.43
2018-03-23T14:34:10.518Z,10.20
2018-03-23T14:36:36.800Z,15.17
2018-03-23T14:39:03.784Z,16.00
2018-03-23T14:41:30.018Z,15.70
2018-03-23T14:43:56.274Z,16.43
2018-03-23T14:46:22.502Z,16.10
2018-03-23T14:48:48.765Z,17.53
2018-03-23T14:51:14.978Z,14.63
2018-03-23T14:53:41.949Z,17.67
2018-03-23T14:56:08.160Z,20.87
2018-03-23T14:58:40.478Z,18.13
2018-03-23T15:01:06.705Z,19.20
2018-03-23T15:03:33.699Z,17.57
2018-03-23T15:05:59.935Z,16.30
2018-03-23T15:08:26.191Z,17.30
2018-03-23T15:10:52.421Z,16.97
2018-03-23T15:13:18.675Z,17.60
2018-03-23T15:15:44.883Z,24.83
2018-03-23T15:18:11.171Z,21.93
2018-03-23T15:20:37.391Z,21.00
2018-03-23T15:23:03.660Z,23.10
2018-03-23T15:25:29.916Z,22.13
2018-03-23T15:27:56.188Z,20.60
2018-03-23T15:30:23.143Z,24.73
2018-03-23T15:32:50.195Z,24.30
2018-03-23T15:35:16.429Z,18.87
2018-03-23T15:37:42.673Z,20.10
2018-03-23T15:40:08.899Z,22.40
2018-03-23T15:42:35.148Z,20.57
2018-03-23T15:45:01.391Z,19.33
2018-03-23T15:47:27.645Z,17.70
2018-03-23T15:49:53.859Z,15.20
2018-03-23T15:52:20.124Z,16.03
2018-03-23T15:54:46.375Z,16.50
2018-03-23T15:57:13.382Z,17.77
2018-03-23T15:59:39.603Z,19.30
2018-03-23T16:02:05.896Z,18.00
2018-03-23T16:04:32.133Z,16.97
2018-03-23T16:06:58.369Z,18.13
2018-03-23T16:09:24.608Z,18.17
2018-03-23T16:11:50.819Z,20.53
2018-03-23T16:14:17.047Z,16.57
2018-03-23T16:16:44.015Z,14.97
2018-03-23T16:19:10.274Z,16.83
2018-03-23T16:21:37.498Z,18.37
2018-03-23T16:24:03.799Z,16.83
2018-03-23T16:26:30.021Z,18.40
2018-03-23T16:28:56.288Z,16.37
2018-03-23T16:31:22.558Z,16.73
2018-03-23T16:33:48.855Z,19.10
2018-03-23T16:36:15.074Z,19.33
2018-03-23T16:38:42.064Z,18.70
2018-03-23T16:41:08.301Z,15.23
2018-03-23T16:43:34.594Z,16.23
2018-03-23T16:46:00.827Z,15.57
2018-03-23T16:48:27.135Z,16.10
2018-03-23T16:50:53.436Z,18.67
2018-03-23T16:53:19.663Z,15.30
2018-03-23T16:55:45.969Z,17.37
2018-03-23T16:58:12.266Z,15.37
2018-03-23T17:00:39.307Z,19.70
2018-03-23T17:03:05.608Z,14.90
2018-03-23T17:05:31.865Z,14.80
2018-03-23T17:07:58.163Z,14.90
2018-03-23T17:10:25.290Z,15.67
2018-03-23T17:12:53.604Z,15.97
2018-03-23T17:15:20.024Z,16.00
2018-03-23T17:17:46.358Z,14.30
2018-03-23T17:20:12.786Z,15.00
2018-03-23T17:22:40.152Z,14.83
2018-03-23T17:25:06.495Z,14.97
2018-03-23T17:27:32.731Z,16.80
2018-03-23T17:29:59.729Z,17.60
2018-03-23T17:32:25.988Z,17.27
2018-03-23T17:34:52.310Z,18.03
2018-03-23T17:37:18.625Z,19.93
2018-03-23T17:39:46.875Z,15.73
2018-03-23T17:42:13.174Z,14.53
2018-03-23T17:44:39.489Z,14.50
2018-03-23T17:47:05.739Z,14.50
2018-03-23T17:49:32.795Z,15.67
2018-03-23T17:51:59.144Z,25.13
2018-03-23T17:54:25.529Z,59.73
2018-03-23T17:56:51.755Z,32.83
2018-03-23T17:59:18.011Z,24.50
2018-03-23T18:01:44.247Z,19.33
2018-03-23T18:04:10.455Z,18.37
2018-03-23T18:06:36.695Z,16.97
2018-03-23T18:09:02.984Z,19.73
2018-03-23T18:11:29.227Z,17.93
2018-03-23T18:13:55.438Z,19.17
2018-03-23T18:16:21.691Z,19.67
2018-03-23T18:18:48.659Z,16.10
2018-03-23T18:21:14.912Z,20.10
2018-03-23T18:23:41.156Z,19.10
2018-03-23T18:26:07.423Z,20.27
2018-03-23T18:28:33.665Z,24.10
2018-03-23T18:30:59.939Z,15.93
2018-03-23T18:33:26.587Z,17.33
2018-03-23T18:35:53.354Z,19.73
2018-03-23T18:38:20.074Z,24.60
2018-03-23T18:40:46.748Z,28.70
2018-03-23T18:43:13.425Z,30.77
2018-03-23T18:45:40.207Z,18.40
2018-03-23T18:48:07.001Z,20.70
2018-03-23T18:50:34.312Z,24.50
2018-03-23T18:53:00.599Z,18.57
2018-03-23T18:55:26.913Z,18.73
2018-03-23T18:57:53.518Z,25.30
2018-03-23T19:00:19.953Z,23.57
2018-03-23T19:02:46.626Z,23.83
2018-03-23T19:05:13.914Z,25.00
2018-03-23T19:07:41.740Z,29.53
2018-03-23T19:10:08.955Z,26.90
2018-03-23T19:12:35.608Z,23.83
2018-03-23T19:15:03.163Z,23.00
2018-03-23T19:17:29.936Z,22.50
2018-03-23T19:19:57.717Z,22.10
2018-03-23T19:22:25.007Z,24.47
2018-03-23T19:24:51.611Z,20.00
2018-03-23T19:27:19.189Z,17.13
2018-03-23T19:29:45.761Z,19.00
2018-03-23T19:32:12.799Z,22.23
2018-03-23T19:34:39.144Z,19.90
2018-03-23T19:37:05.497Z,17.57
2018-03-23T19:39:31.787Z,19.90
2018-03-23T19:41:58.015Z,22.73
2018-03-23T19:44:24.257Z,19.83
2018-03-23T19:46:50.508Z,22.37
2018-03-23T19:49:16.742Z,21.00
2018-03-23T19:51:42.975Z,25.37
2018-03-23T19:54:09.949Z,19.33
2018-03-23T19:56:36.301Z,21.23
2018-03-23T19:59:03.255Z,20.10
2018-03-23T20:01:29.518Z,20.77
2018-03-23T20:03:55.755Z,25.93
2018-03-23T20:06:22.022Z,23.73
2018-03-23T20:08:48.248Z,19.97
2018-03-23T20:11:14.760Z,21.73
2018-03-23T20:13:47.919Z,21.57
2018-03-23T20:16:14.196Z,22.43
2018-03-23T20:18:40.417Z,33.03
2018-03-23T20:21:06.653Z,27.73
2018-03-23T20:23:32.883Z,30.70
2018-03-23T20:25:59.128Z,27.93
2018-03-23T20:28:31.601Z,24.63
2018-03-23T20:30:57.836Z,47.10
2018-03-23T20:33:24.083Z,50.30
2018-03-23T20:35:50.368Z,55.83
2018-03-23T20:38:16.612Z,60.27
2018-03-23T20:40:42.861Z,44.97
2018-03-23T20:43:09.102Z,53.07
2018-03-23T20:45:35.349Z,59.07
2018-03-23T20:48:02.336Z,46.93
2018-03-23T20:50:28.580Z,26.57
2018-03-23T20:52:54.883Z,24.33
2018-03-23T20:55:21.129Z,21.07
2018-03-23T20:57:47.375Z,18.90
2018-03-23T21:00:13.595Z,18.80
2018-03-23T21:02:39.847Z,21.17
2018-03-23T21:05:06.097Z,16.80
2018-03-23T21:07:32.348Z,19.03
2018-03-23T21:09:58.560Z,16.03
2018-03-23T21:12:24.818Z,17.80
2018-03-23T21:14:51.035Z,18.37
2018-03-23T21:17:17.290Z,17.30
2018-03-23T21:19:43.527Z,17.30
2018-03-23T21:22:09.795Z,20.50
2018-03-23T21:24:36.046Z,20.80
2018-03-23T21:27:02.322Z,21.10
2018-03-23T21:29:28.551Z,30.73
2018-03-23T21:31:55.541Z,36.90
2018-03-23T21:34:21.788Z,28.87
2018-03-23T21:36:48.003Z,23.50
2018-03-23T21:39:14.238Z,28.20
2018-03-23T21:41:40.459Z,24.10
2018-03-23T21:44:06.720Z,20.67
2018-03-23T21:46:33.697Z,18.37
2018-03-23T21:49:00.002Z,25.53
2018-03-23T21:51:26.238Z,18.33
2018-03-23T21:53:52.473Z,21.43
2018-03-23T21:56:18.698Z,23.30
2018-03-23T21:58:44.952Z,22.57
2018-03-23T22:01:11.171Z,19.60
2018-03-23T22:03:37.411Z,19.60
2018-03-23T22:06:03.639Z,17.70
2018-03-23T22:08:29.898Z,15.17
2018-03-23T22:10:56.115Z,16.80
2018-03-23T22:13:22.384Z,16.17
2018-03-23T22:15:48.618Z,20.60
2018-03-23T22:18:14.868Z,19.17
2018-03-23T22:20:41.103Z,16.00
2018-03-23T22:23:07.341Z,17.27
2018-03-23T22:25:34.422Z,17.77
2018-03-23T22:28:00.664Z,16.23
2018-03-23T22:30:26.862Z,16.23
2018-03-23T22:32:53.871Z,19.60
2018-03-23T22:35:20.107Z,18.30
2018-03-23T22:37:46.373Z,16.83
2018-03-23T22:40:12.595Z,16.50
2018-03-23T22:42:38.837Z,16.40
2018-03-23T22:45:05.087Z,18.30
2018-03-23T22:47:31.325Z,19.80
2018-03-23T22:49:57.542Z,18.73
2018-03-23T22:52:23.811Z,18.70
2018-03-23T22:54:50.066Z,20.33
2018-03-23T22:57:16.294Z,18.07
2018-03-23T22:59:42.509Z,19.27
2018-03-23T23:02:08.746Z,21.17
2018-03-23T23:04:34.984Z,18.57
2018-03-23T23:07:01.246Z,16.87
2018-03-23T23:09:27.486Z,16.40
2018-03-23T23:11:53.730Z,18.10
2018-03-23T23:14:19.992Z,19.03
2018-03-23T23:16:46.222Z,18.20
2018-03-23T23:19:12.485Z,16.33
2018-03-23T23:21:38.771Z,16.93
2018-03-23T23:24:05.740Z,18.07
2018-03-23T23:26:31.994Z,18.80
2018-03-23T23:28:58.210Z,19.30
2018-03-23T23:31:25.414Z,19.67
2018-03-23T23:33:51.660Z,20.17
2018-03-23T23:36:18.187Z,20.87
2018-03-23T23:38:44.442Z,29.63
2018-03-23T23:41:10.911Z,16.47
2018-03-23T23:43:37.363Z,18.13
2018-03-23T23:46:04.448Z,20.93
2018-03-23T23:48:30.772Z,17.43
2018-03-23T23:50:57.067Z,25.13
2018-03-23T23:53:24.150Z,22.60
2018-03-23T23:55:50.468Z,19.97
2018-03-23T23:58:17.473Z,21.63
